sensor_id;sensor_type;location;lat;lon;timestamp;pressure;altitude;pressure_sealevel;temperature;humidity
26531;BME280;14201;43.188;24.160;2022-12-11T00:01:21;97413.47;;;10.49;100.00
26531;BME280;14201;43.188;24.160;2022-12-11T00:03:47;97408.22;;;10.46;100.00
26531;BME280;14201;43.188;24.160;2022-12-11T00:06:13;97404.75;;;10.49;100.00
26531;BME280;14201;43.188;24.160;2022-12-11T00:08:39;97406.47;;;10.42;100.00
26531;BME280;14201;43.188;24.160;2022-12-11T00:11:07;97410.66;;;10.29;100.00
26531;BME280;14201;43.188;24.160;2022-12-11T00:13:33;97392.34;;;10.09;100.00
26531;BME280;14201;43.188;24.160;2022-12-11T00:15:58;97389.72;;;10.08;100.00
26531;BME280;14201;43.188;24.160;2022-12-11T00:18:23;97397.50;;;10.03;100.00
26531;BME280;14201;43.188;24.160;2022-12-11T00:20:49;97392.28;;;10.06;100.00
26531;BME280;14201;43.188;24.160;2022-12-11T00:23:14;97394.09;;;10.13;100.00
26531;BME280;14201;43.188;24.160;2022-12-11T00:25:43;97394.91;;;10.06;100.00
26531;BME280;14201;43.188;24.160;2022-12-11T00:28:09;97374.88;;;9.96;100.00
26531;BME280;14201;43.188;24.160;2022-12-11T00:30:38;97372.28;;;9.94;100.00
26531;BME280;14201;43.188;24.160;2022-12-11T00:33:05;97371.41;;;9.91;100.00
26531;BME280;14201;43.188;24.160;2022-12-11T00:35:30;97368.81;;;9.95;100.00
26531;BME280;14201;43.188;24.160;2022-12-11T00:37:55;97374.06;;;9.98;100.00
26531;BME280;14201;43.188;24.160;2022-12-11T00:40:21;97363.72;;;10.08;100.00
26531;BME280;14201;43.188;24.160;2022-12-11T00:42:46;97372.44;;;10.14;100.00
26531;BME280;14201;43.188;24.160;2022-12-11T00:45:11;97352.44;;;10.07;100.00
26531;BME280;14201;43.188;24.160;2022-12-11T00:47:37;97355.03;;;10.02;100.00
26531;BME280;14201;43.188;24.160;2022-12-11T00:50:03;97349.81;;;10.04;100.00
26531;BME280;14201;43.188;24.160;2022-12-11T00:52:28;97343.63;;;9.86;100.00
26531;BME280;14201;43.188;24.160;2022-12-11T00:54:53;97344.53;;;9.92;100.00
26531;BME280;14201;43.188;24.160;2022-12-11T00:57:19;97363.66;;;9.98;100.00
26531;BME280;14201;43.188;24.160;2022-12-11T00:59:44;97374.91;;;9.97;100.00
26531;BME280;14201;43.188;24.160;2022-12-11T01:02:10;97368.00;;;10.04;100.00
26531;BME280;14201;43.188;24.160;2022-12-11T01:04:35;97355.91;;;10.08;100.00
26531;BME280;14201;43.188;24.160;2022-12-11T01:07:01;97355.06;;;10.09;100.00
26531;BME280;14201;43.188;24.160;2022-12-11T01:09:26;97347.22;;;10.01;100.00
26531;BME280;14201;43.188;24.160;2022-12-11T01:12:10;97336.00;;;10.08;100.00
26531;BME280;14201;43.188;24.160;2022-12-11T01:14:36;97327.25;;;10.00;100.00
26531;BME280;14201;43.188;24.160;2022-12-11T01:17:01;97331.44;;;9.82;100.00
26531;BME280;14201;43.188;24.160;2022-12-11T01:19:26;97332.38;;;9.88;100.00
26531;BME280;14201;43.188;24.160;2022-12-11T01:21:52;97325.34;;;9.74;100.00
26531;BME280;14201;43.188;24.160;2022-12-11T01:24:18;97308.03;;;9.73;100.00
26531;BME280;14201;43.188;24.160;2022-12-11T01:26:43;97334.00;;;9.76;100.00
26531;BME280;14201;43.188;24.160;2022-12-11T01:29:09;97336.53;;;9.64;100.00
26531;BME280;14201;43.188;24.160;2022-12-11T01:31:35;97314.78;;;9.53;100.00
26531;BME280;14201;43.188;24.160;2022-12-11T01:34:00;97299.13;;;9.50;100.00
26531;BME280;14201;43.188;24.160;2022-12-11T01:36:26;97305.88;;;9.27;100.00
26531;BME280;14201;43.188;24.160;2022-12-11T01:38:51;97314.47;;;9.20;100.00
26531;BME280;14201;43.188;24.160;2022-12-11T01:41:18;97310.19;;;9.25;100.00
26531;BME280;14201;43.188;24.160;2022-12-11T01:46:22;97297.81;;;9.01;100.00
26531;BME280;14201;43.188;24.160;2022-12-11T01:48:47;97311.84;;;9.16;100.00
26531;BME280;14201;43.188;24.160;2022-12-11T01:51:12;97301.59;;;9.31;100.00
26531;BME280;14201;43.188;24.160;2022-12-11T01:53:39;97287.69;;;9.26;100.00
26531;BME280;14201;43.188;24.160;2022-12-11T01:56:06;97280.78;;;9.25;100.00
26531;BME280;14201;43.188;24.160;2022-12-11T01:58:43;97270.47;;;9.36;100.00
26531;BME280;14201;43.188;24.160;2022-12-11T02:01:11;97292.16;;;9.44;100.00
26531;BME280;14201;43.188;24.160;2022-12-11T02:03:39;97288.88;;;9.65;100.00
26531;BME280;14201;43.188;24.160;2022-12-11T02:06:04;97289.78;;;9.70;100.00
26531;BME280;14201;43.188;24.160;2022-12-11T02:08:30;97310.53;;;9.67;100.00
26531;BME280;14201;43.188;24.160;2022-12-11T02:16:06;97294.06;;;9.65;100.00
26531;BME280;14201;43.188;24.160;2022-12-11T02:18:38;97319.13;;;9.57;100.00
26531;BME280;14201;43.188;24.160;2022-12-11T02:23:35;97282.56;;;9.35;100.00
26531;BME280;14201;43.188;24.160;2022-12-11T02:31:26;97266.78;;;9.12;100.00
26531;BME280;14201;43.188;24.160;2022-12-11T02:33:50;97278.78;;;8.98;100.00
26531;BME280;14201;43.188;24.160;2022-12-11T02:36:19;97265.00;;;9.03;100.00
26531;BME280;14201;43.188;24.160;2022-12-11T02:38:48;97289.25;;;9.09;100.00
26531;BME280;14201;43.188;24.160;2022-12-11T02:41:16;97307.56;;;9.21;100.00
26531;BME280;14201;43.188;24.160;2022-12-11T02:43:44;97324.91;;;9.25;100.00
26531;BME280;14201;43.188;24.160;2022-12-11T02:46:12;97337.94;;;9.30;100.00
26531;BME280;14201;43.188;24.160;2022-12-11T02:48:39;97338.88;;;9.39;100.00
26531;BME280;14201;43.188;24.160;2022-12-11T02:51:07;97338.00;;;9.37;100.00
26531;BME280;14201;43.188;24.160;2022-12-11T02:53:34;97352.72;;;9.37;100.00
26531;BME280;14201;43.188;24.160;2022-12-11T02:56:04;97345.03;;;9.46;100.00
26531;BME280;14201;43.188;24.160;2022-12-11T02:58:32;97361.41;;;9.39;100.00
26531;BME280;14201;43.188;24.160;2022-12-11T03:00:58;97362.25;;;9.35;100.00
26531;BME280;14201;43.188;24.160;2022-12-11T03:03:24;97359.63;;;9.36;100.00
26531;BME280;14201;43.188;24.160;2022-12-11T03:05:49;97356.19;;;9.37;100.00
26531;BME280;14201;43.188;24.160;2022-12-11T03:08:15;97334.56;;;9.38;100.00
26531;BME280;14201;43.188;24.160;2022-12-11T03:10:42;97350.16;;;9.40;100.00
26531;BME280;14201;43.188;24.160;2022-12-11T03:13:08;97349.16;;;9.25;100.00
26531;BME280;14201;43.188;24.160;2022-12-11T03:19:05;97331.88;;;9.32;100.00
26531;BME280;14201;43.188;24.160;2022-12-11T03:21:10;97321.53;;;9.35;100.00
26531;BME280;14201;43.188;24.160;2022-12-11T03:23:40;97341.31;;;9.21;100.00
26531;BME280;14201;43.188;24.160;2022-12-11T03:26:09;97361.22;;;9.22;100.00
26531;BME280;14201;43.188;24.160;2022-12-11T03:28:38;97371.69;;;9.28;100.00
26531;BME280;14201;43.188;24.160;2022-12-11T03:31:08;97366.59;;;9.37;100.00
26531;BME280;14201;43.188;24.160;2022-12-11T03:33:37;97390.81;;;9.38;100.00
26531;BME280;14201;43.188;24.160;2022-12-11T03:36:46;97390.03;;;9.43;100.00
26531;BME280;14201;43.188;24.160;2022-12-11T03:38:55;97380.59;;;9.55;100.00
26531;BME280;14201;43.188;24.160;2022-12-11T03:41:25;97381.59;;;9.66;100.00
26531;BME280;14201;43.188;24.160;2022-12-11T03:43:52;97386.72;;;9.60;100.00
26531;BME280;14201;43.188;24.160;2022-12-11T03:46:21;97371.97;;;9.56;100.00
26531;BME280;14201;43.188;24.160;2022-12-11T03:48:47;97374.50;;;9.50;100.00
26531;BME280;14201;43.188;24.160;2022-12-11T03:51:13;97365.88;;;9.55;100.00
26531;BME280;14201;43.188;24.160;2022-12-11T03:53:39;97383.22;;;9.55;100.00
26531;BME280;14201;43.188;24.160;2022-12-11T03:56:05;97379.69;;;9.50;100.00
26531;BME280;14201;43.188;24.160;2022-12-11T03:58:30;97377.13;;;9.53;100.00
26531;BME280;14201;43.188;24.160;2022-12-11T04:00:56;97384.97;;;9.56;100.00
26531;BME280;14201;43.188;24.160;2022-12-11T04:03:21;97387.53;;;9.53;100.00
26531;BME280;14201;43.188;24.160;2022-12-11T04:05:47;97387.53;;;9.54;100.00
26531;BME280;14201;43.188;24.160;2022-12-11T04:08:13;97386.59;;;9.44;100.00
26531;BME280;14201;43.188;24.160;2022-12-11T04:10:39;97398.59;;;9.36;100.00
26531;BME280;14201;43.188;24.160;2022-12-11T04:13:05;97389.03;;;9.32;100.00
26531;BME280;14201;43.188;24.160;2022-12-11T04:15:30;97381.25;;;9.34;100.00
26531;BME280;14201;43.188;24.160;2022-12-11T04:17:56;97384.81;;;9.42;100.00
26531;BME280;14201;43.188;24.160;2022-12-11T04:20:40;97386.53;;;9.38;100.00
26531;BME280;14201;43.188;24.160;2022-12-11T04:23:23;97382.16;;;9.36;100.00
26531;BME280;14201;43.188;24.160;2022-12-11T04:26:09;97388.19;;;9.33;100.00
26531;BME280;14201;43.188;24.160;2022-12-11T04:28:35;97382.16;;;9.37;100.00
26531;BME280;14201;43.188;24.160;2022-12-11T04:31:01;97381.38;;;9.43;100.00
26531;BME280;14201;43.188;24.160;2022-12-11T04:33:27;97364.03;;;9.43;100.00
26531;BME280;14201;43.188;24.160;2022-12-11T04:35:52;97380.56;;;9.50;100.00
26531;BME280;14201;43.188;24.160;2022-12-11T04:38:18;97364.88;;;9.41;100.00
26531;BME280;14201;43.188;24.160;2022-12-11T04:40:43;97360.47;;;9.32;100.00
26531;BME280;14201;43.188;24.160;2022-12-11T04:43:08;97362.19;;;9.30;100.00
26531;BME280;14201;43.188;24.160;2022-12-11T04:45:34;97376.16;;;9.43;100.00
26531;BME280;14201;43.188;24.160;2022-12-11T04:47:59;97374.44;;;9.45;100.00
26531;BME280;14201;43.188;24.160;2022-12-11T04:50:25;97389.25;;;9.54;100.00
26531;BME280;14201;43.188;24.160;2022-12-11T04:52:53;97398.06;;;9.68;100.00
26531;BME280;14201;43.188;24.160;2022-12-11T04:55:19;97414.69;;;9.87;100.00
26531;BME280;14201;43.188;24.160;2022-12-11T04:57:44;97412.97;;;9.88;100.00
26531;BME280;14201;43.188;24.160;2022-12-11T05:00:10;97422.63;;;10.01;100.00
26531;BME280;14201;43.188;24.160;2022-12-11T05:02:36;97449.41;;;9.91;100.00
26531;BME280;14201;43.188;24.160;2022-12-11T05:05:03;97446.72;;;9.84;100.00
26531;BME280;14201;43.188;24.160;2022-12-11T05:07:28;97454.53;;;9.86;100.00
26531;BME280;14201;43.188;24.160;2022-12-11T05:09:54;97459.03;;;10.05;100.00
26531;BME280;14201;43.188;24.160;2022-12-11T05:12:19;97461.72;;;10.15;100.00
26531;BME280;14201;43.188;24.160;2022-12-11T05:14:45;97447.03;;;10.18;100.00
26531;BME280;14201;43.188;24.160;2022-12-11T05:17:10;97447.81;;;10.08;100.00
26531;BME280;14201;43.188;24.160;2022-12-11T05:19:35;97443.53;;;10.15;100.00
26531;BME280;14201;43.188;24.160;2022-12-11T05:22:01;97459.19;;;10.22;100.00
26531;BME280;14201;43.188;24.160;2022-12-11T05:24:26;97458.31;;;10.20;100.00
26531;BME280;14201;43.188;24.160;2022-12-11T05:26:52;97448.00;;;10.30;100.00
26531;BME280;14201;43.188;24.160;2022-12-11T05:29:17;97448.97;;;10.39;100.00
26531;BME280;14201;43.188;24.160;2022-12-11T05:31:42;97442.94;;;10.45;100.00
26531;BME280;14201;43.188;24.160;2022-12-11T05:34:08;97447.28;;;10.48;100.00
26531;BME280;14201;43.188;24.160;2022-12-11T05:36:33;97454.28;;;10.55;100.00
26531;BME280;14201;43.188;24.160;2022-12-11T05:38:59;97444.75;;;10.61;100.00
26531;BME280;14201;43.188;24.160;2022-12-11T05:41:26;97439.53;;;10.55;100.00
26531;BME280;14201;43.188;24.160;2022-12-11T05:43:52;97444.69;;;10.52;100.00
26531;BME280;14201;43.188;24.160;2022-12-11T05:46:18;97450.84;;;10.63;100.00
26531;BME280;14201;43.188;24.160;2022-12-11T05:48:45;97453.50;;;10.73;100.00
26531;BME280;14201;43.188;24.160;2022-12-11T05:51:11;97457.00;;;10.79;100.00
26531;BME280;14201;43.188;24.160;2022-12-11T05:53:37;97448.47;;;11.08;100.00
26531;BME280;14201;43.188;24.160;2022-12-11T05:56:07;97458.09;;;11.23;100.00
26531;BME280;14201;43.188;24.160;2022-12-11T05:58:33;97474.59;;;11.22;100.00
26531;BME280;14201;43.188;24.160;2022-12-11T06:00:59;97461.53;;;11.11;100.00
26531;BME280;14201;43.188;24.160;2022-12-11T06:03:24;97479.81;;;11.28;100.00
26531;BME280;14201;43.188;24.160;2022-12-11T06:05:50;97481.53;;;11.20;100.00
26531;BME280;14201;43.188;24.160;2022-12-11T06:08:15;97469.44;;;11.31;100.00
26531;BME280;14201;43.188;24.160;2022-12-11T06:10:47;97465.94;;;11.34;100.00
26531;BME280;14201;43.188;24.160;2022-12-11T06:13:13;97479.03;;;11.40;100.00
26531;BME280;14201;43.188;24.160;2022-12-11T06:15:38;97484.22;;;11.35;100.00
26531;BME280;14201;43.188;24.160;2022-12-11T06:18:04;97486.84;;;11.38;100.00
26531;BME280;14201;43.188;24.160;2022-12-11T06:20:30;97499.03;;;11.50;100.00
26531;BME280;14201;43.188;24.160;2022-12-11T06:22:55;97500.78;;;11.54;100.00
26531;BME280;14201;43.188;24.160;2022-12-11T06:25:21;97506.84;;;11.49;100.00
26531;BME280;14201;43.188;24.160;2022-12-11T06:27:46;97509.47;;;11.53;100.00
26531;BME280;14201;43.188;24.160;2022-12-11T06:30:12;97513.75;;;11.37;100.00
26531;BME280;14201;43.188;24.160;2022-12-11T06:32:37;97523.31;;;11.32;100.00
26531;BME280;14201;43.188;24.160;2022-12-11T06:35:03;97532.00;;;11.34;100.00
26531;BME280;14201;43.188;24.160;2022-12-11T06:37:28;97538.06;;;11.39;100.00
26531;BME280;14201;43.188;24.160;2022-12-11T06:39:54;97557.28;;;11.58;100.00
26531;BME280;14201;43.188;24.160;2022-12-11T06:42:19;97558.06;;;11.43;100.00
26531;BME280;14201;43.188;24.160;2022-12-11T06:44:44;97554.69;;;11.63;100.00
26531;BME280;14201;43.188;24.160;2022-12-11T06:47:10;97546.91;;;11.74;100.00
26531;BME280;14201;43.188;24.160;2022-12-11T06:49:35;97553.00;;;11.65;100.00
26531;BME280;14201;43.188;24.160;2022-12-11T06:52:00;97552.09;;;11.66;100.00
26531;BME280;14201;43.188;24.160;2022-12-11T06:54:26;97555.63;;;11.77;100.00
26531;BME280;14201;43.188;24.160;2022-12-11T06:56:52;97560.94;;;11.99;100.00
26531;BME280;14201;43.188;24.160;2022-12-11T06:59:17;97550.53;;;12.19;100.00
26531;BME280;14201;43.188;24.160;2022-12-11T07:01:43;97557.53;;;12.35;100.00
26531;BME280;14201;43.188;24.160;2022-12-11T07:04:09;97558.41;;;12.42;100.00
26531;BME280;14201;43.188;24.160;2022-12-11T07:06:34;97574.94;;;12.44;100.00
26531;BME280;14201;43.188;24.160;2022-12-11T07:09:02;97574.06;;;12.40;100.00
26531;BME280;14201;43.188;24.160;2022-12-11T07:11:27;97581.03;;;12.37;100.00
26531;BME280;14201;43.188;24.160;2022-12-11T07:13:53;97581.03;;;12.55;100.00
26531;BME280;14201;43.188;24.160;2022-12-11T07:16:18;97588.88;;;12.51;100.00
26531;BME280;14201;43.188;24.160;2022-12-11T07:18:48;97589.78;;;12.74;100.00
26531;BME280;14201;43.188;24.160;2022-12-11T07:21:14;97566.25;;;12.85;98.05
26531;BME280;14201;43.188;24.160;2022-12-11T07:23:42;97582.78;;;12.81;97.40
26531;BME280;14201;43.188;24.160;2022-12-11T07:26:08;97593.25;;;12.81;95.25
26531;BME280;14201;43.188;24.160;2022-12-11T07:28:34;97608.91;;;12.69;92.88
26531;BME280;14201;43.188;24.160;2022-12-11T07:31:13;97608.88;;;12.43;93.74
26531;BME280;14201;43.188;24.160;2022-12-11T07:33:39;97619.34;;;12.41;94.47
26531;BME280;14201;43.188;24.160;2022-12-11T07:36:05;97625.44;;;12.45;94.77
26531;BME280;14201;43.188;24.160;2022-12-11T07:38:31;97619.31;;;12.44;94.10
26531;BME280;14201;43.188;24.160;2022-12-11T07:41:03;97621.09;;;12.45;94.18
26531;BME280;14201;43.188;24.160;2022-12-11T07:43:29;97624.56;;;12.47;93.05
26531;BME280;14201;43.188;24.160;2022-12-11T07:45:59;97644.59;;;12.47;93.41
26531;BME280;14201;43.188;24.160;2022-12-11T07:48:25;97657.56;;;12.33;92.33
26531;BME280;14201;43.188;24.160;2022-12-11T07:50:50;97665.41;;;12.24;92.29
26531;BME280;14201;43.188;24.160;2022-12-11T07:53:15;97661.88;;;12.14;92.29
26531;BME280;14201;43.188;24.160;2022-12-11T07:55:41;97661.84;;;12.08;93.00
26531;BME280;14201;43.188;24.160;2022-12-11T07:58:06;97672.28;;;12.06;93.31
26531;BME280;14201;43.188;24.160;2022-12-11T08:00:31;97679.25;;;12.04;93.70
26531;BME280;14201;43.188;24.160;2022-12-11T08:02:57;97695.78;;;12.09;93.73
26531;BME280;14201;43.188;24.160;2022-12-11T08:05:23;97713.09;;;11.98;92.82
26531;BME280;14201;43.188;24.160;2022-12-11T08:07:48;97730.41;;;11.85;93.04
26531;BME280;14201;43.188;24.160;2022-12-11T08:10:14;97747.75;;;11.77;94.30
26531;BME280;14201;43.188;24.160;2022-12-11T08:12:40;97745.91;;;11.63;93.99
26531;BME280;14201;43.188;24.160;2022-12-11T08:15:05;97768.53;;;11.66;94.87
26531;BME280;14201;43.188;24.160;2022-12-11T08:17:31;97770.16;;;11.55;94.24
26531;BME280;14201;43.188;24.160;2022-12-11T08:19:56;97778.88;;;11.54;95.32
26531;BME280;14201;43.188;24.160;2022-12-11T08:22:22;97780.59;;;11.55;95.38
26531;BME280;14201;43.188;24.160;2022-12-11T08:24:47;97777.97;;;11.52;94.76
26531;BME280;14201;43.188;24.160;2022-12-11T08:27:13;97768.41;;;11.51;95.03
26531;BME280;14201;43.188;24.160;2022-12-11T08:29:38;97772.66;;;11.41;94.82
26531;BME280;14201;43.188;24.160;2022-12-11T08:32:04;97778.69;;;11.32;95.22
26531;BME280;14201;43.188;24.160;2022-12-11T08:34:29;97784.72;;;11.30;95.11
26531;BME280;14201;43.188;24.160;2022-12-11T08:36:54;97792.53;;;11.28;95.85
26531;BME280;14201;43.188;24.160;2022-12-11T08:39:20;97809.06;;;11.32;95.25
26531;BME280;14201;43.188;24.160;2022-12-11T08:41:45;97798.63;;;11.32;95.43
26531;BME280;14201;43.188;24.160;2022-12-11T08:44:11;97798.56;;;11.21;94.57
26531;BME280;14201;43.188;24.160;2022-12-11T08:46:36;97794.25;;;11.26;94.99
26531;BME280;14201;43.188;24.160;2022-12-11T08:49:02;97799.44;;;11.23;95.52
26531;BME280;14201;43.188;24.160;2022-12-11T08:51:28;97799.44;;;11.26;94.23
26531;BME280;14201;43.188;24.160;2022-12-11T08:53:54;97802.91;;;11.23;94.11
26531;BME280;14201;43.188;24.160;2022-12-11T08:56:20;97800.16;;;11.08;95.74
26531;BME280;14201;43.188;24.160;2022-12-11T08:58:47;97805.56;;;11.28;94.15
26531;BME280;14201;43.188;24.160;2022-12-11T09:01:23;97810.81;;;11.33;93.83
26531;BME280;14201;43.188;24.160;2022-12-11T09:03:49;97810.69;;;11.20;92.45
26531;BME280;14201;43.188;24.160;2022-12-11T09:06:16;97819.41;;;11.24;93.83
26531;BME280;14201;43.188;24.160;2022-12-11T09:08:42;97828.09;;;11.23;93.58
26531;BME280;14201;43.188;24.160;2022-12-11T09:11:13;97839.28;;;11.11;92.62
26531;BME280;14201;43.188;24.160;2022-12-11T09:13:39;97842.81;;;11.18;92.93
26531;BME280;14201;43.188;24.160;2022-12-11T09:16:08;97853.22;;;11.18;92.50
26531;BME280;14201;43.188;24.160;2022-12-11T09:18:37;97859.25;;;11.12;92.67
26531;BME280;14201;43.188;24.160;2022-12-11T09:21:04;97849.63;;;11.03;92.92
26531;BME280;14201;43.188;24.160;2022-12-11T09:23:30;97852.16;;;11.00;92.03
26531;BME280;14201;43.188;24.160;2022-12-11T09:25:55;97850.28;;;10.89;93.23
26531;BME280;14201;43.188;24.160;2022-12-11T09:28:21;97859.00;;;10.91;93.00
26531;BME280;14201;43.188;24.160;2022-12-11T09:30:47;97863.34;;;10.90;92.23
26531;BME280;14201;43.188;24.160;2022-12-11T09:33:12;97855.50;;;10.89;92.80
26531;BME280;14201;43.188;24.160;2022-12-11T09:35:37;97861.53;;;10.84;93.23
26531;BME280;14201;43.188;24.160;2022-12-11T09:38:03;97865.13;;;10.94;92.72
26531;BME280;14201;43.188;24.160;2022-12-11T09:40:28;97883.41;;;10.97;92.25
26531;BME280;14201;43.188;24.160;2022-12-11T09:43:05;97891.25;;;11.00;92.54
26531;BME280;14201;43.188;24.160;2022-12-11T09:45:33;97875.72;;;11.10;92.49
26531;BME280;14201;43.188;24.160;2022-12-11T09:47:59;97883.59;;;11.13;90.99
26531;BME280;14201;43.188;24.160;2022-12-11T09:50:31;97883.59;;;11.14;90.50
26531;BME280;14201;43.188;24.160;2022-12-11T09:55:41;97880.22;;;11.23;88.35
26531;BME280;14201;43.188;24.160;2022-12-11T10:16:30;97887.88;;;11.08;85.98
26531;BME280;14201;43.188;24.160;2022-12-11T10:18:58;97884.31;;;10.99;86.92
26531;BME280;14201;43.188;24.160;2022-12-11T10:21:24;97885.19;;;11.03;86.93
26531;BME280;14201;43.188;24.160;2022-12-11T10:23:57;97872.16;;;11.03;86.71
26531;BME280;14201;43.188;24.160;2022-12-11T10:26:25;97872.13;;;10.98;87.06
26531;BME280;14201;43.188;24.160;2022-12-11T10:28:52;97875.66;;;11.03;87.34
26531;BME280;14201;43.188;24.160;2022-12-11T10:31:51;97884.44;;;11.12;87.52
26531;BME280;14201;43.188;24.160;2022-12-11T10:34:11;97884.47;;;11.15;86.77
26531;BME280;14201;43.188;24.160;2022-12-11T10:36:37;97883.66;;;11.19;85.62
26531;BME280;14201;43.188;24.160;2022-12-11T10:39:16;97900.91;;;11.09;84.14
26531;BME280;14201;43.188;24.160;2022-12-11T10:41:44;97892.09;;;10.98;85.23
26531;BME280;14201;43.188;24.160;2022-12-11T10:44:14;97889.47;;;10.98;86.18
26531;BME280;14201;43.188;24.160;2022-12-11T10:46:40;97888.41;;;10.83;87.13
26531;BME280;14201;43.188;24.160;2022-12-11T10:49:17;97872.81;;;10.85;88.07
26531;BME280;14201;43.188;24.160;2022-12-11T10:51:44;97870.41;;;11.00;86.33
26531;BME280;14201;43.188;24.160;2022-12-11T10:56:50;97879.78;;;10.86;88.87
26531;BME280;14201;43.188;24.160;2022-12-11T10:59:21;97882.50;;;10.97;88.94
26531;BME280;14201;43.188;24.160;2022-12-11T11:01:48;97874.91;;;11.14;87.15
26531;BME280;14201;43.188;24.160;2022-12-11T11:04:14;97861.84;;;11.12;86.15
26531;BME280;14201;43.188;24.160;2022-12-11T11:06:43;97865.16;;;10.99;87.94
26531;BME280;14201;43.188;24.160;2022-12-11T11:11:52;97872.91;;;10.93;89.12
26531;BME280;14201;43.188;24.160;2022-12-11T11:14:20;97883.47;;;11.03;88.08
26531;BME280;14201;43.188;24.160;2022-12-11T11:16:50;97875.53;;;10.94;88.74
26531;BME280;14201;43.188;24.160;2022-12-11T11:19:37;97879.09;;;10.99;88.21
26531;BME280;14201;43.188;24.160;2022-12-11T11:22:03;97886.09;;;11.03;88.15
26531;BME280;14201;43.188;24.160;2022-12-11T11:26:55;97904.34;;;11.05;89.17
26531;BME280;14201;43.188;24.160;2022-12-11T11:29:24;97914.75;;;11.07;89.21
26531;BME280;14201;43.188;24.160;2022-12-11T11:31:51;97926.84;;;11.03;88.23
26531;BME280;14201;43.188;24.160;2022-12-11T11:34:18;97893.88;;;11.02;88.92
26531;BME280;14201;43.188;24.160;2022-12-11T11:36:45;97881.91;;;11.19;88.84
26531;BME280;14201;43.188;24.160;2022-12-11T11:39:22;97906.22;;;11.17;89.77
26531;BME280;14201;43.188;24.160;2022-12-11T11:44:18;97888.84;;;11.17;87.71
26531;BME280;14201;43.188;24.160;2022-12-11T11:46:46;97871.38;;;11.10;87.44
26531;BME280;14201;43.188;24.160;2022-12-11T11:52:00;97897.13;;;10.84;87.12
26531;BME280;14201;43.188;24.160;2022-12-11T11:54:35;97893.63;;;10.83;86.65
26531;BME280;14201;43.188;24.160;2022-12-11T11:57:10;97872.69;;;10.76;86.90
26531;BME280;14201;43.188;24.160;2022-12-11T11:59:41;97893.44;;;10.67;86.90
26531;BME280;14201;43.188;24.160;2022-12-11T12:02:15;97913.22;;;10.55;88.59
26531;BME280;14201;43.188;24.160;2022-12-11T12:04:40;97882.88;;;10.57;87.47
26531;BME280;14201;43.188;24.160;2022-12-11T12:09:54;97895.75;;;10.45;88.34
26531;BME280;14201;43.188;24.160;2022-12-11T12:17:25;97894.78;;;10.40;89.33
26531;BME280;14201;43.188;24.160;2022-12-11T12:20:03;97902.66;;;10.43;89.48
26531;BME280;14201;43.188;24.160;2022-12-11T12:22:35;97908.75;;;10.47;88.49
26531;BME280;14201;43.188;24.160;2022-12-11T12:28:01;97921.78;;;10.45;88.80
26531;BME280;14201;43.188;24.160;2022-12-11T12:30:30;97927.88;;;10.47;89.56
26531;BME280;14201;43.188;24.160;2022-12-11T12:33:11;97931.31;;;10.46;89.43
26531;BME280;14201;43.188;24.160;2022-12-11T12:35:50;97922.59;;;10.44;89.21
26531;BME280;14201;43.188;24.160;2022-12-11T12:48:48;97914.84;;;10.47;89.07
26531;BME280;14201;43.188;24.160;2022-12-11T12:51:15;97917.47;;;10.50;90.68
26531;BME280;14201;43.188;24.160;2022-12-11T12:53:43;97913.19;;;10.51;91.12
26531;BME280;14201;43.188;24.160;2022-12-11T12:56:11;97917.56;;;10.55;91.26
26531;BME280;14201;43.188;24.160;2022-12-11T12:58:43;97920.16;;;10.53;91.22
26531;BME280;14201;43.188;24.160;2022-12-11T13:01:14;97919.38;;;10.60;90.44
26531;BME280;14201;43.188;24.160;2022-12-11T13:03:57;97916.97;;;10.76;87.31
26531;BME280;14201;43.188;24.160;2022-12-11T13:08:54;97911.53;;;10.57;88.66
26531;BME280;14201;43.188;24.160;2022-12-11T13:11:20;97899.31;;;10.53;89.00
26531;BME280;14201;43.188;24.160;2022-12-11T13:14:05;97902.84;;;10.58;88.47
26531;BME280;14201;43.188;24.160;2022-12-11T13:16:35;97906.38;;;10.60;88.24
26531;BME280;14201;43.188;24.160;2022-12-11T13:19:01;97894.13;;;10.56;88.35
26531;BME280;14201;43.188;24.160;2022-12-11T13:21:36;97885.41;;;10.51;88.51
26531;BME280;14201;43.188;24.160;2022-12-11T13:26:45;97898.34;;;10.47;90.62
26531;BME280;14201;43.188;24.160;2022-12-11T13:29:34;97914.03;;;10.51;90.63
26531;BME280;14201;43.188;24.160;2022-12-11T13:32:01;97925.31;;;10.52;90.44
26531;BME280;14201;43.188;24.160;2022-12-11T13:34:30;97924.56;;;10.59;90.53
26531;BME280;14201;43.188;24.160;2022-12-11T13:36:57;97929.72;;;10.56;88.27
26531;BME280;14201;43.188;24.160;2022-12-11T13:39:24;97937.25;;;10.37;89.19
26531;BME280;14201;43.188;24.160;2022-12-11T13:41:52;97932.91;;;10.36;89.80
26531;BME280;14201;43.188;24.160;2022-12-11T13:44:20;97934.66;;;10.39;90.36
26531;BME280;14201;43.188;24.160;2022-12-11T13:46:48;97938.22;;;10.44;90.33
26531;BME280;14201;43.188;24.160;2022-12-11T13:49:21;97944.44;;;10.54;89.65
26531;BME280;14201;43.188;24.160;2022-12-11T13:51:51;97944.41;;;10.52;88.08
26531;BME280;14201;43.188;24.160;2022-12-11T13:54:17;97947.03;;;10.54;87.49
26531;BME280;14201;43.188;24.160;2022-12-11T13:59:28;97962.56;;;10.48;88.86
26531;BME280;14201;43.188;24.160;2022-12-11T14:01:54;97980.66;;;10.40;88.70
26531;BME280;14201;43.188;24.160;2022-12-11T14:04:21;97977.13;;;10.36;89.68
26531;BME280;14201;43.188;24.160;2022-12-11T14:06:47;97990.22;;;10.39;90.44
26531;BME280;14201;43.188;24.160;2022-12-11T14:09:19;97994.50;;;10.39;88.90
26531;BME280;14201;43.188;24.160;2022-12-11T14:11:46;97979.78;;;10.41;87.86